Terminal Aerodrome Forecast
Issued by NWS

Home | Current Version | Previous Version | Text Only | Print | Product List | Glossary On
Versions: 1 2 3 4 5 6 7 8 9 10 11 12 13 14 15 16 17 18 19 20 21 22 23 24 25 26 27 28 29 30 31 32 33 34
841
FTAK31 PANC 300534
TAFADL
TAF
PADL 300534Z 3006/0106 VRB06KT P6SM -SHRA SCT025 OVC035
     FM300900 06010G16KT P6SM VCSH SCT025 BKN040
     FM301500 04013G20KT P6SM -SHRA SCT020 BKN030
     FM010000 01016KT P6SM VCSH SCT025 BKN035=

USA.gov is the U.S. government's official web portal to all federal, state and local government web resources and services.